sensor_id;sensor_type;location;lat;lon;timestamp;temperature;humidity
9975;DHT22;5028;50.974;4.968;2023-02-18T00:01:41;10.50;99.90
9975;DHT22;5028;50.974;4.968;2023-02-18T00:04:09;10.50;99.90
9975;DHT22;5028;50.974;4.968;2023-02-18T00:06:45;10.50;99.90
9975;DHT22;5028;50.974;4.968;2023-02-18T00:09:13;10.40;99.90
9975;DHT22;5028;50.974;4.968;2023-02-18T00:11:48;10.40;99.90
9975;DHT22;5028;50.974;4.968;2023-02-18T00:14:16;10.40;99.90
9975;DHT22;5028;50.974;4.968;2023-02-18T00:16:53;10.40;99.90
9975;DHT22;5028;50.974;4.968;2023-02-18T00:19:21;10.40;99.90
9975;DHT22;5028;50.974;4.968;2023-02-18T00:21:57;10.40;99.90
9975;DHT22;5028;50.974;4.968;2023-02-18T00:24:25;10.40;99.90
9975;DHT22;5028;50.974;4.968;2023-02-18T00:27:00;10.40;99.90
9975;DHT22;5028;50.974;4.968;2023-02-18T00:29:28;10.40;99.90
9975;DHT22;5028;50.974;4.968;2023-02-18T00:32:04;10.40;99.90
9975;DHT22;5028;50.974;4.968;2023-02-18T00:37:15;10.40;99.90
9975;DHT22;5028;50.974;4.968;2023-02-18T00:39:56;10.40;99.90
9975;DHT22;5028;50.974;4.968;2023-02-18T00:42:24;10.40;99.90
9975;DHT22;5028;50.974;4.968;2023-02-18T00:44:53;10.40;99.90
9975;DHT22;5028;50.974;4.968;2023-02-18T00:47:29;10.40;99.90
9975;DHT22;5028;50.974;4.968;2023-02-18T00:49:58;10.40;99.90
9975;DHT22;5028;50.974;4.968;2023-02-18T00:52:33;10.40;99.90
9975;DHT22;5028;50.974;4.968;2023-02-18T00:55:01;10.30;99.90
9975;DHT22;5028;50.974;4.968;2023-02-18T00:57:36;10.40;99.90
9975;DHT22;5028;50.974;4.968;2023-02-18T01:00:05;10.40;99.90
9975;DHT22;5028;50.974;4.968;2023-02-18T01:02:42;10.40;99.90
9975;DHT22;5028;50.974;4.968;2023-02-18T01:05:17;10.40;99.90
9975;DHT22;5028;50.974;4.968;2023-02-18T01:07:45;10.40;99.90
9975;DHT22;5028;50.974;4.968;2023-02-18T01:10:20;10.40;99.90
9975;DHT22;5028;50.974;4.968;2023-02-18T01:12:49;10.40;99.90
9975;DHT22;5028;50.974;4.968;2023-02-18T01:15:24;10.40;99.90
9975;DHT22;5028;50.974;4.968;2023-02-18T01:17:54;10.40;99.90
9975;DHT22;5028;50.974;4.968;2023-02-18T01:20:29;10.40;99.90
9975;DHT22;5028;50.974;4.968;2023-02-18T01:22:58;10.40;99.90
9975;DHT22;5028;50.974;4.968;2023-02-18T01:25:33;10.40;99.90
9975;DHT22;5028;50.974;4.968;2023-02-18T01:28:03;10.50;99.90
9975;DHT22;5028;50.974;4.968;2023-02-18T01:30:38;10.50;99.90
9975;DHT22;5028;50.974;4.968;2023-02-18T01:33:08;10.50;99.90
9975;DHT22;5028;50.974;4.968;2023-02-18T01:35:51;10.50;99.90
9975;DHT22;5028;50.974;4.968;2023-02-18T01:38:34;10.50;99.90
9975;DHT22;5028;50.974;4.968;2023-02-18T01:41:09;10.50;99.90
9975;DHT22;5028;50.974;4.968;2023-02-18T01:43:38;10.50;99.90
9975;DHT22;5028;50.974;4.968;2023-02-18T01:46:16;10.50;99.90
9975;DHT22;5028;50.974;4.968;2023-02-18T01:48:49;10.50;99.90
9975;DHT22;5028;50.974;4.968;2023-02-18T01:51:27;10.50;99.90
9975;DHT22;5028;50.974;4.968;2023-02-18T01:53:59;10.50;99.90
9975;DHT22;5028;50.974;4.968;2023-02-18T01:56:38;10.50;99.90
9975;DHT22;5028;50.974;4.968;2023-02-18T01:59:10;10.50;99.90
9975;DHT22;5028;50.974;4.968;2023-02-18T02:01:46;10.50;99.90
9975;DHT22;5028;50.974;4.968;2023-02-18T02:04:16;10.50;99.90
9975;DHT22;5028;50.974;4.968;2023-02-18T02:06:51;10.40;99.90
9975;DHT22;5028;50.974;4.968;2023-02-18T02:09:20;10.40;99.90
9975;DHT22;5028;50.974;4.968;2023-02-18T02:12:19;10.40;99.90
9975;DHT22;5028;50.974;4.968;2023-02-18T02:15:10;10.40;99.90
9975;DHT22;5028;50.974;4.968;2023-02-18T02:24:26;10.30;99.90
9975;DHT22;5028;50.974;4.968;2023-02-18T02:27:20;10.30;99.90
9975;DHT22;5028;50.974;4.968;2023-02-18T02:36:02;10.30;99.90
9975;DHT22;5028;50.974;4.968;2023-02-18T02:38:54;10.30;99.90
9975;DHT22;5028;50.974;4.968;2023-02-18T02:41:36;10.20;99.90
9975;DHT22;5028;50.974;4.968;2023-02-18T02:44:19;10.30;99.90
9975;DHT22;5028;50.974;4.968;2023-02-18T02:46:51;10.30;99.90
9975;DHT22;5028;50.974;4.968;2023-02-18T02:49:42;10.30;99.90
9975;DHT22;5028;50.974;4.968;2023-02-18T02:52:18;10.30;99.90
9975;DHT22;5028;50.974;4.968;2023-02-18T02:54:55;10.20;99.90
9975;DHT22;5028;50.974;4.968;2023-02-18T02:57:45;10.20;99.90
9975;DHT22;5028;50.974;4.968;2023-02-18T03:00:30;10.30;99.90
9975;DHT22;5028;50.974;4.968;2023-02-18T03:03:21;10.20;99.90
9975;DHT22;5028;50.974;4.968;2023-02-18T03:06:19;10.20;99.90
9975;DHT22;5028;50.974;4.968;2023-02-18T03:09:06;10.20;99.90
9975;DHT22;5028;50.974;4.968;2023-02-18T03:11:44;10.20;99.90
9975;DHT22;5028;50.974;4.968;2023-02-18T03:14:26;10.20;99.90
9975;DHT22;5028;50.974;4.968;2023-02-18T03:17:00;10.20;99.90
9975;DHT22;5028;50.974;4.968;2023-02-18T03:19:39;10.20;99.90
9975;DHT22;5028;50.974;4.968;2023-02-18T03:22:13;10.20;99.90
9975;DHT22;5028;50.974;4.968;2023-02-18T03:24:54;10.20;99.90
9975;DHT22;5028;50.974;4.968;2023-02-18T03:27:26;10.20;99.90
9975;DHT22;5028;50.974;4.968;2023-02-18T03:30:04;10.20;99.90
9975;DHT22;5028;50.974;4.968;2023-02-18T03:32:33;10.20;99.90
9975;DHT22;5028;50.974;4.968;2023-02-18T03:35:12;10.20;99.90
9975;DHT22;5028;50.974;4.968;2023-02-18T03:37:47;10.10;99.90
9975;DHT22;5028;50.974;4.968;2023-02-18T03:40:36;10.10;99.90
9975;DHT22;5028;50.974;4.968;2023-02-18T03:43:04;10.10;99.90
9975;DHT22;5028;50.974;4.968;2023-02-18T03:45:39;10.10;99.90
9975;DHT22;5028;50.974;4.968;2023-02-18T03:48:07;10.10;99.90
9975;DHT22;5028;50.974;4.968;2023-02-18T03:50:42;10.10;99.90
9975;DHT22;5028;50.974;4.968;2023-02-18T03:53:10;10.10;99.90
9975;DHT22;5028;50.974;4.968;2023-02-18T03:55:46;10.10;99.90
9975;DHT22;5028;50.974;4.968;2023-02-18T03:58:15;10.10;99.90
9975;DHT22;5028;50.974;4.968;2023-02-18T04:00:50;10.10;99.90
9975;DHT22;5028;50.974;4.968;2023-02-18T04:03:22;10.10;99.90
9975;DHT22;5028;50.974;4.968;2023-02-18T04:05:57;10.10;99.90
9975;DHT22;5028;50.974;4.968;2023-02-18T04:08:26;10.10;99.90
9975;DHT22;5028;50.974;4.968;2023-02-18T04:11:03;10.10;99.90
9975;DHT22;5028;50.974;4.968;2023-02-18T04:13:32;10.10;99.90
9975;DHT22;5028;50.974;4.968;2023-02-18T04:16:07;10.10;99.90
9975;DHT22;5028;50.974;4.968;2023-02-18T04:18:36;10.10;99.90
9975;DHT22;5028;50.974;4.968;2023-02-18T04:21:11;10.10;99.90
9975;DHT22;5028;50.974;4.968;2023-02-18T04:23:39;10.10;99.90
9975;DHT22;5028;50.974;4.968;2023-02-18T04:26:15;10.10;99.90
9975;DHT22;5028;50.974;4.968;2023-02-18T04:28:44;10.10;99.90
9975;DHT22;5028;50.974;4.968;2023-02-18T04:31:18;10.10;99.90
9975;DHT22;5028;50.974;4.968;2023-02-18T04:33:46;10.10;99.90
9975;DHT22;5028;50.974;4.968;2023-02-18T04:36:28;10.10;99.90
9975;DHT22;5028;50.974;4.968;2023-02-18T04:39:09;10.10;99.90
9975;DHT22;5028;50.974;4.968;2023-02-18T04:41:45;10.10;99.90
9975;DHT22;5028;50.974;4.968;2023-02-18T04:44:14;10.10;99.90
9975;DHT22;5028;50.974;4.968;2023-02-18T04:46:49;10.10;99.90
9975;DHT22;5028;50.974;4.968;2023-02-18T04:49:17;10.10;99.90
9975;DHT22;5028;50.974;4.968;2023-02-18T04:51:52;10.10;99.90
9975;DHT22;5028;50.974;4.968;2023-02-18T04:54:20;10.00;99.90
9975;DHT22;5028;50.974;4.968;2023-02-18T04:56:56;10.10;99.90
9975;DHT22;5028;50.974;4.968;2023-02-18T04:59:25;10.00;99.90
9975;DHT22;5028;50.974;4.968;2023-02-18T05:02:00;10.00;99.90
9975;DHT22;5028;50.974;4.968;2023-02-18T05:04:28;10.00;99.90
9975;DHT22;5028;50.974;4.968;2023-02-18T05:07:03;10.00;99.90
9975;DHT22;5028;50.974;4.968;2023-02-18T05:09:32;10.00;99.90
9975;DHT22;5028;50.974;4.968;2023-02-18T05:12:08;10.00;99.90
9975;DHT22;5028;50.974;4.968;2023-02-18T05:14:37;10.00;99.90
9975;DHT22;5028;50.974;4.968;2023-02-18T05:17:12;10.00;99.90
9975;DHT22;5028;50.974;4.968;2023-02-18T05:19:40;9.90;99.90
9975;DHT22;5028;50.974;4.968;2023-02-18T05:22:15;9.90;99.90
9975;DHT22;5028;50.974;4.968;2023-02-18T05:24:43;9.90;99.90
9975;DHT22;5028;50.974;4.968;2023-02-18T05:27:19;9.90;99.90
9975;DHT22;5028;50.974;4.968;2023-02-18T05:29:48;9.90;99.90
9975;DHT22;5028;50.974;4.968;2023-02-18T05:32:23;9.90;99.90
9975;DHT22;5028;50.974;4.968;2023-02-18T05:34:51;9.90;99.90
9975;DHT22;5028;50.974;4.968;2023-02-18T05:37:33;9.80;99.90
9975;DHT22;5028;50.974;4.968;2023-02-18T05:40:14;9.90;99.90
9975;DHT22;5028;50.974;4.968;2023-02-18T05:42:50;9.90;99.90
9975;DHT22;5028;50.974;4.968;2023-02-18T05:45:19;9.90;99.90
9975;DHT22;5028;50.974;4.968;2023-02-18T05:47:54;9.90;99.90
9975;DHT22;5028;50.974;4.968;2023-02-18T05:50:23;9.80;99.90
9975;DHT22;5028;50.974;4.968;2023-02-18T05:52:57;9.80;99.90
9975;DHT22;5028;50.974;4.968;2023-02-18T05:55:26;9.80;99.90
9975;DHT22;5028;50.974;4.968;2023-02-18T05:58:01;9.80;99.90
9975;DHT22;5028;50.974;4.968;2023-02-18T06:00:30;9.80;99.90
9975;DHT22;5028;50.974;4.968;2023-02-18T06:03:05;9.80;99.90
9975;DHT22;5028;50.974;4.968;2023-02-18T06:05:33;9.80;99.90
9975;DHT22;5028;50.974;4.968;2023-02-18T06:08:08;9.80;99.90
9975;DHT22;5028;50.974;4.968;2023-02-18T06:10:36;9.80;99.90
9975;DHT22;5028;50.974;4.968;2023-02-18T06:13:15;9.70;99.90
9975;DHT22;5028;50.974;4.968;2023-02-18T06:15:49;9.70;99.90
9975;DHT22;5028;50.974;4.968;2023-02-18T06:18:18;9.70;99.90
9975;DHT22;5028;50.974;4.968;2023-02-18T06:20:53;9.70;99.90
9975;DHT22;5028;50.974;4.968;2023-02-18T06:23:22;9.60;99.90
9975;DHT22;5028;50.974;4.968;2023-02-18T06:25:56;9.60;99.90
9975;DHT22;5028;50.974;4.968;2023-02-18T06:28:26;9.60;99.90
9975;DHT22;5028;50.974;4.968;2023-02-18T06:31:01;9.60;99.90
9975;DHT22;5028;50.974;4.968;2023-02-18T06:33:29;9.60;99.90
9975;DHT22;5028;50.974;4.968;2023-02-18T06:36:11;9.50;99.90
9975;DHT22;5028;50.974;4.968;2023-02-18T06:38:41;9.50;99.90
9975;DHT22;5028;50.974;4.968;2023-02-18T06:41:16;9.50;99.90
9975;DHT22;5028;50.974;4.968;2023-02-18T06:43:46;9.50;99.90
9975;DHT22;5028;50.974;4.968;2023-02-18T06:46:21;9.50;99.90
9975;DHT22;5028;50.974;4.968;2023-02-18T06:48:49;9.60;99.90
9975;DHT22;5028;50.974;4.968;2023-02-18T06:51:24;9.50;99.90
9975;DHT22;5028;50.974;4.968;2023-02-18T06:53:53;9.50;99.90
9975;DHT22;5028;50.974;4.968;2023-02-18T06:56:27;9.50;99.90
9975;DHT22;5028;50.974;4.968;2023-02-18T06:58:58;9.50;99.90
9975;DHT22;5028;50.974;4.968;2023-02-18T07:01:33;9.50;99.90
9975;DHT22;5028;50.974;4.968;2023-02-18T07:04:02;9.50;99.90
9975;DHT22;5028;50.974;4.968;2023-02-18T07:06:36;9.50;99.90
9975;DHT22;5028;50.974;4.968;2023-02-18T07:09:05;9.50;99.90
9975;DHT22;5028;50.974;4.968;2023-02-18T07:11:40;9.50;99.90
9975;DHT22;5028;50.974;4.968;2023-02-18T07:14:10;9.50;99.90
9975;DHT22;5028;50.974;4.968;2023-02-18T07:16:45;9.50;99.90
9975;DHT22;5028;50.974;4.968;2023-02-18T07:19:14;9.50;99.90
9975;DHT22;5028;50.974;4.968;2023-02-18T07:21:48;9.60;99.90
9975;DHT22;5028;50.974;4.968;2023-02-18T07:24:17;9.50;99.90
9975;DHT22;5028;50.974;4.968;2023-02-18T07:26:51;9.50;99.90
9975;DHT22;5028;50.974;4.968;2023-02-18T07:29:21;9.50;99.90
9975;DHT22;5028;50.974;4.968;2023-02-18T07:31:56;9.50;99.90
9975;DHT22;5028;50.974;4.968;2023-02-18T07:34:24;9.50;99.90
9975;DHT22;5028;50.974;4.968;2023-02-18T07:36:59;9.50;99.90
9975;DHT22;5028;50.974;4.968;2023-02-18T07:39:42;9.50;99.90
9975;DHT22;5028;50.974;4.968;2023-02-18T07:42:17;9.50;99.90
9975;DHT22;5028;50.974;4.968;2023-02-18T07:44:47;9.50;99.90
9975;DHT22;5028;50.974;4.968;2023-02-18T07:47:22;9.50;99.90
9975;DHT22;5028;50.974;4.968;2023-02-18T07:49:50;9.50;99.90
9975;DHT22;5028;50.974;4.968;2023-02-18T07:52:25;9.50;99.90
9975;DHT22;5028;50.974;4.968;2023-02-18T07:54:53;9.60;99.90
9975;DHT22;5028;50.974;4.968;2023-02-18T07:57:28;9.60;99.90
9975;DHT22;5028;50.974;4.968;2023-02-18T07:59:58;9.60;99.90
9975;DHT22;5028;50.974;4.968;2023-02-18T08:02:33;9.70;99.90
9975;DHT22;5028;50.974;4.968;2023-02-18T08:05:01;9.60;99.90
9975;DHT22;5028;50.974;4.968;2023-02-18T08:07:39;9.70;99.90
9975;DHT22;5028;50.974;4.968;2023-02-18T08:10:08;9.70;99.90
9975;DHT22;5028;50.974;4.968;2023-02-18T08:12:43;9.70;99.90
9975;DHT22;5028;50.974;4.968;2023-02-18T08:15:15;9.70;99.90
9975;DHT22;5028;50.974;4.968;2023-02-18T08:17:51;9.80;99.90
9975;DHT22;5028;50.974;4.968;2023-02-18T08:20:19;9.80;99.90
9975;DHT22;5028;50.974;4.968;2023-02-18T08:22:56;9.80;99.90
9975;DHT22;5028;50.974;4.968;2023-02-18T08:25:25;9.80;99.90
9975;DHT22;5028;50.974;4.968;2023-02-18T08:27:59;9.90;99.90
9975;DHT22;5028;50.974;4.968;2023-02-18T08:30:29;9.80;99.90
9975;DHT22;5028;50.974;4.968;2023-02-18T08:33:04;9.90;99.90
9975;DHT22;5028;50.974;4.968;2023-02-18T08:35:33;10.00;99.90
9975;DHT22;5028;50.974;4.968;2023-02-18T08:38:09;10.00;99.90
9975;DHT22;5028;50.974;4.968;2023-02-18T08:40:44;10.00;99.90
9975;DHT22;5028;50.974;4.968;2023-02-18T08:43:19;10.00;99.90
9975;DHT22;5028;50.974;4.968;2023-02-18T08:45:49;10.00;99.90
9975;DHT22;5028;50.974;4.968;2023-02-18T08:48:25;10.10;99.90
9975;DHT22;5028;50.974;4.968;2023-02-18T08:50:53;10.10;99.90
9975;DHT22;5028;50.974;4.968;2023-02-18T08:53:28;10.10;99.90
9975;DHT22;5028;50.974;4.968;2023-02-18T08:55:57;10.20;99.90
9975;DHT22;5028;50.974;4.968;2023-02-18T08:58:31;10.00;99.90
9975;DHT22;5028;50.974;4.968;2023-02-18T09:01:07;10.20;99.90
9975;DHT22;5028;50.974;4.968;2023-02-18T09:03:42;10.20;99.90
9975;DHT22;5028;50.974;4.968;2023-02-18T09:06:11;10.20;99.90
9975;DHT22;5028;50.974;4.968;2023-02-18T09:08:45;10.20;99.90
9975;DHT22;5028;50.974;4.968;2023-02-18T09:11:13;10.20;99.90
9975;DHT22;5028;50.974;4.968;2023-02-18T09:13:48;10.20;99.90
9975;DHT22;5028;50.974;4.968;2023-02-18T09:16:18;10.20;99.90
9975;DHT22;5028;50.974;4.968;2023-02-18T09:18:53;10.30;99.90
9975;DHT22;5028;50.974;4.968;2023-02-18T09:21:21;10.30;99.90
9975;DHT22;5028;50.974;4.968;2023-02-18T09:23:57;10.20;99.90
9975;DHT22;5028;50.974;4.968;2023-02-18T09:26:26;10.30;99.90
9975;DHT22;5028;50.974;4.968;2023-02-18T09:29:01;10.30;99.90
9975;DHT22;5028;50.974;4.968;2023-02-18T09:31:31;10.30;99.90
9975;DHT22;5028;50.974;4.968;2023-02-18T09:34:06;10.30;99.90
9975;DHT22;5028;50.974;4.968;2023-02-18T09:36:35;10.30;99.90
9975;DHT22;5028;50.974;4.968;2023-02-18T09:39:17;10.30;99.90
9975;DHT22;5028;50.974;4.968;2023-02-18T09:41:47;10.30;99.90
9975;DHT22;5028;50.974;4.968;2023-02-18T09:44:26;10.30;99.90
9975;DHT22;5028;50.974;4.968;2023-02-18T09:47:05;10.30;99.90
9975;DHT22;5028;50.974;4.968;2023-02-18T09:49:36;10.30;99.90
9975;DHT22;5028;50.974;4.968;2023-02-18T09:52:14;10.30;99.90
9975;DHT22;5028;50.974;4.968;2023-02-18T09:54:43;10.40;99.90
9975;DHT22;5028;50.974;4.968;2023-02-18T09:57:23;10.40;99.90
9975;DHT22;5028;50.974;4.968;2023-02-18T09:59:58;10.40;99.90
9975;DHT22;5028;50.974;4.968;2023-02-18T10:02:35;10.40;99.90
9975;DHT22;5028;50.974;4.968;2023-02-18T10:05:11;10.40;99.90
9975;DHT22;5028;50.974;4.968;2023-02-18T10:07:42;10.40;99.90
9975;DHT22;5028;50.974;4.968;2023-02-18T10:10:31;10.40;99.90
9975;DHT22;5028;50.974;4.968;2023-02-18T10:13:02;10.40;99.90
9975;DHT22;5028;50.974;4.968;2023-02-18T10:15:37;10.40;99.90
9975;DHT22;5028;50.974;4.968;2023-02-18T10:18:23;10.40;99.90
9975;DHT22;5028;50.974;4.968;2023-02-18T10:21:04;10.40;99.90
9975;DHT22;5028;50.974;4.968;2023-02-18T10:23:36;10.40;99.90
9975;DHT22;5028;50.974;4.968;2023-02-18T10:26:14;10.40;99.90
9975;DHT22;5028;50.974;4.968;2023-02-18T10:28:44;10.50;99.90
9975;DHT22;5028;50.974;4.968;2023-02-18T10:31:22;10.50;99.90
9975;DHT22;5028;50.974;4.968;2023-02-18T10:33:58;10.50;99.90
9975;DHT22;5028;50.974;4.968;2023-02-18T10:36:37;10.50;99.90
9975;DHT22;5028;50.974;4.968;2023-02-18T10:39:34;10.50;99.90
9975;DHT22;5028;50.974;4.968;2023-02-18T10:42:22;10.50;99.90
9975;DHT22;5028;50.974;4.968;2023-02-18T10:45:03;10.50;99.90
9975;DHT22;5028;50.974;4.968;2023-02-18T10:47:47;10.50;99.90
9975;DHT22;5028;50.974;4.968;2023-02-18T10:50:27;10.50;99.90
9975;DHT22;5028;50.974;4.968;2023-02-18T10:53:15;10.50;99.90
9975;DHT22;5028;50.974;4.968;2023-02-18T10:55:47;10.50;99.90
9975;DHT22;5028;50.974;4.968;2023-02-18T10:58:41;10.50;99.90
9975;DHT22;5028;50.974;4.968;2023-02-18T11:01:18;10.60;99.90
9975;DHT22;5028;50.974;4.968;2023-02-18T11:03:49;10.60;99.90
9975;DHT22;5028;50.974;4.968;2023-02-18T11:06:29;10.60;99.90
9975;DHT22;5028;50.974;4.968;2023-02-18T11:08:59;10.60;99.90
9975;DHT22;5028;50.974;4.968;2023-02-18T11:11:37;10.60;99.90
9975;DHT22;5028;50.974;4.968;2023-02-18T11:14:08;10.60;99.90
9975;DHT22;5028;50.974;4.968;2023-02-18T11:16:47;10.70;99.90
9975;DHT22;5028;50.974;4.968;2023-02-18T11:19:31;10.60;99.90
9975;DHT22;5028;50.974;4.968;2023-02-18T11:22:14;10.70;99.90
9975;DHT22;5028;50.974;4.968;2023-02-18T11:24:43;10.70;99.90
9975;DHT22;5028;50.974;4.968;2023-02-18T11:27:24;10.70;99.90
9975;DHT22;5028;50.974;4.968;2023-02-18T11:29:57;10.70;99.90
9975;DHT22;5028;50.974;4.968;2023-02-18T11:32:34;10.70;99.90
9975;DHT22;5028;50.974;4.968;2023-02-18T11:35:04;10.70;99.90
9975;DHT22;5028;50.974;4.968;2023-02-18T11:37:41;10.80;99.90
9975;DHT22;5028;50.974;4.968;2023-02-18T11:40:21;10.80;99.90
9975;DHT22;5028;50.974;4.968;2023-02-18T11:43:03;10.80;99.90
9975;DHT22;5028;50.974;4.968;2023-02-18T11:45:33;10.80;99.90
9975;DHT22;5028;50.974;4.968;2023-02-18T11:48:16;10.80;99.90
9975;DHT22;5028;50.974;4.968;2023-02-18T11:50:45;10.80;99.90
9975;DHT22;5028;50.974;4.968;2023-02-18T11:53:29;10.80;99.90
9975;DHT22;5028;50.974;4.968;2023-02-18T11:56:09;10.90;99.90
9975;DHT22;5028;50.974;4.968;2023-02-18T11:58:45;10.90;99.90
9975;DHT22;5028;50.974;4.968;2023-02-18T12:01:31;10.90;99.90
9975;DHT22;5028;50.974;4.968;2023-02-18T12:04:09;10.90;99.90
9975;DHT22;5028;50.974;4.968;2023-02-18T12:06:49;10.90;99.90
9975;DHT22;5028;50.974;4.968;2023-02-18T12:09:25;10.90;99.90
9975;DHT22;5028;50.974;4.968;2023-02-18T12:12:04;10.90;99.90
9975;DHT22;5028;50.974;4.968;2023-02-18T12:14:35;10.90;99.90
9975;DHT22;5028;50.974;4.968;2023-02-18T12:17:25;10.90;99.90
9975;DHT22;5028;50.974;4.968;2023-02-18T12:20:22;11.00;99.90
9975;DHT22;5028;50.974;4.968;2023-02-18T12:23:03;10.90;99.90
9975;DHT22;5028;50.974;4.968;2023-02-18T12:25:39;11.00;99.90
9975;DHT22;5028;50.974;4.968;2023-02-18T12:28:27;11.00;99.90
9975;DHT22;5028;50.974;4.968;2023-02-18T12:31:24;11.00;99.90
9975;DHT22;5028;50.974;4.968;2023-02-18T12:34:30;11.00;99.90
9975;DHT22;5028;50.974;4.968;2023-02-18T12:37:10;11.00;99.90
9975;DHT22;5028;50.974;4.968;2023-02-18T12:40:04;11.10;99.90
9975;DHT22;5028;50.974;4.968;2023-02-18T12:42:45;11.10;99.90
9975;DHT22;5028;50.974;4.968;2023-02-18T12:45:39;11.10;99.90
9975;DHT22;5028;50.974;4.968;2023-02-18T12:48:30;11.10;99.90
9975;DHT22;5028;50.974;4.968;2023-02-18T12:51:47;11.10;99.90
9975;DHT22;5028;50.974;4.968;2023-02-18T12:54:45;11.00;99.90
9975;DHT22;5028;50.974;4.968;2023-02-18T12:57:29;11.00;99.90
9975;DHT22;5028;50.974;4.968;2023-02-18T13:00:30;11.00;99.90
9975;DHT22;5028;50.974;4.968;2023-02-18T13:06:27;11.10;99.90
9975;DHT22;5028;50.974;4.968;2023-02-18T13:09:04;11.10;99.90
9975;DHT22;5028;50.974;4.968;2023-02-18T13:11:45;11.20;99.90
9975;DHT22;5028;50.974;4.968;2023-02-18T13:14:21;11.10;99.90
9975;DHT22;5028;50.974;4.968;2023-02-18T13:16:59;11.10;99.90
9975;DHT22;5028;50.974;4.968;2023-02-18T13:19:33;11.10;99.90
9975;DHT22;5028;50.974;4.968;2023-02-18T13:22:14;11.00;99.90
9975;DHT22;5028;50.974;4.968;2023-02-18T13:24:47;11.00;99.90
9975;DHT22;5028;50.974;4.968;2023-02-18T13:27:27;10.90;99.90
9975;DHT22;5028;50.974;4.968;2023-02-18T13:30:08;10.90;99.90
9975;DHT22;5028;50.974;4.968;2023-02-18T13:32:57;10.80;99.90
9975;DHT22;5028;50.974;4.968;2023-02-18T13:35:32;10.80;99.90
9975;DHT22;5028;50.974;4.968;2023-02-18T13:41:21;10.80;99.90
9975;DHT22;5028;50.974;4.968;2023-02-18T13:43:59;10.70;99.90
9975;DHT22;5028;50.974;4.968;2023-02-18T13:46:27;10.70;99.90
9975;DHT22;5028;50.974;4.968;2023-02-18T13:49:06;10.70;99.90
9975;DHT22;5028;50.974;4.968;2023-02-18T13:51:44;10.70;99.90
9975;DHT22;5028;50.974;4.968;2023-02-18T13:54:25;10.70;99.90
9975;DHT22;5028;50.974;4.968;2023-02-18T13:57:00;10.70;99.90
9975;DHT22;5028;50.974;4.968;2023-02-18T13:59:39;10.60;99.90
9975;DHT22;5028;50.974;4.968;2023-02-18T14:02:28;10.60;99.90
9975;DHT22;5028;50.974;4.968;2023-02-18T14:05:19;10.60;99.90
9975;DHT22;5028;50.974;4.968;2023-02-18T14:07:51;10.60;99.90
9975;DHT22;5028;50.974;4.968;2023-02-18T14:10:31;10.60;99.90
9975;DHT22;5028;50.974;4.968;2023-02-18T14:13:24;10.50;99.90
9975;DHT22;5028;50.974;4.968;2023-02-18T14:16:12;10.60;99.90
9975;DHT22;5028;50.974;4.968;2023-02-18T14:18:59;10.60;99.90
9975;DHT22;5028;50.974;4.968;2023-02-18T14:21:37;10.60;99.90
9975;DHT22;5028;50.974;4.968;2023-02-18T14:24:09;10.50;99.90
9975;DHT22;5028;50.974;4.968;2023-02-18T14:26:47;10.50;99.90
9975;DHT22;5028;50.974;4.968;2023-02-18T14:29:29;10.50;99.90
9975;DHT22;5028;50.974;4.968;2023-02-18T14:32:09;10.50;99.90
9975;DHT22;5028;50.974;4.968;2023-02-18T14:34:58;10.50;99.90
9975;DHT22;5028;50.974;4.968;2023-02-18T14:38:01;10.50;99.90
9975;DHT22;5028;50.974;4.968;2023-02-18T14:40:58;10.40;99.90
9975;DHT22;5028;50.974;4.968;2023-02-18T14:47:04;10.50;99.90
9975;DHT22;5028;50.974;4.968;2023-02-18T14:49:42;10.50;99.90
9975;DHT22;5028;50.974;4.968;2023-02-18T14:52:30;10.50;99.90
9975;DHT22;5028;50.974;4.968;2023-02-18T14:55:10;10.50;99.90
9975;DHT22;5028;50.974;4.968;2023-02-18T14:57:45;10.50;99.90
9975;DHT22;5028;50.974;4.968;2023-02-18T15:00:23;10.50;99.90
9975;DHT22;5028;50.974;4.968;2023-02-18T15:02:55;10.50;99.90
9975;DHT22;5028;50.974;4.968;2023-02-18T15:05:31;10.40;99.90
9975;DHT22;5028;50.974;4.968;2023-02-18T15:08:02;10.40;99.90
9975;DHT22;5028;50.974;4.968;2023-02-18T15:10:38;10.40;99.90
9975;DHT22;5028;50.974;4.968;2023-02-18T15:13:13;10.40;99.90
9975;DHT22;5028;50.974;4.968;2023-02-18T15:15:52;10.40;99.90
9975;DHT22;5028;50.974;4.968;2023-02-18T15:18:29;10.40;99.90
9975;DHT22;5028;50.974;4.968;2023-02-18T15:21:08;10.50;99.90
9975;DHT22;5028;50.974;4.968;2023-02-18T15:23:39;10.50;99.90
9975;DHT22;5028;50.974;4.968;2023-02-18T15:26:15;10.50;99.90
9975;DHT22;5028;50.974;4.968;2023-02-18T15:28:53;10.50;99.90
9975;DHT22;5028;50.974;4.968;2023-02-18T15:31:33;10.50;99.90
9975;DHT22;5028;50.974;4.968;2023-02-18T15:34:24;10.50;99.90
9975;DHT22;5028;50.974;4.968;2023-02-18T15:37:05;10.60;99.90
9975;DHT22;5028;50.974;4.968;2023-02-18T15:39:40;10.60;99.90
9975;DHT22;5028;50.974;4.968;2023-02-18T15:42:22;10.60;99.90
9975;DHT22;5028;50.974;4.968;2023-02-18T15:44:55;10.70;99.90
9975;DHT22;5028;50.974;4.968;2023-02-18T15:47:31;10.60;99.90
9975;DHT22;5028;50.974;4.968;2023-02-18T15:50:02;10.70;99.90
9975;DHT22;5028;50.974;4.968;2023-02-18T15:52:39;10.70;99.90
9975;DHT22;5028;50.974;4.968;2023-02-18T15:55:20;10.70;99.90
9975;DHT22;5028;50.974;4.968;2023-02-18T15:57:58;10.70;99.90
9975;DHT22;5028;50.974;4.968;2023-02-18T16:00:30;10.70;99.90
9975;DHT22;5028;50.974;4.968;2023-02-18T16:03:12;10.60;99.90
9975;DHT22;5028;50.974;4.968;2023-02-18T16:05:44;10.60;99.90
9975;DHT22;5028;50.974;4.968;2023-02-18T16:08:23;10.60;99.90
9975;DHT22;5028;50.974;4.968;2023-02-18T16:10:54;10.60;99.90
9975;DHT22;5028;50.974;4.968;2023-02-18T16:13:31;10.60;99.90
9975;DHT22;5028;50.974;4.968;2023-02-18T16:16:00;10.70;99.90
9975;DHT22;5028;50.974;4.968;2023-02-18T16:18:37;10.60;99.90
9975;DHT22;5028;50.974;4.968;2023-02-18T16:21:23;10.60;99.90
9975;DHT22;5028;50.974;4.968;2023-02-18T16:24:01;10.70;99.90
9975;DHT22;5028;50.974;4.968;2023-02-18T16:26:39;10.60;99.90
9975;DHT22;5028;50.974;4.968;2023-02-18T16:29:20;10.60;99.90
9975;DHT22;5028;50.974;4.968;2023-02-18T16:31:49;10.60;99.90
9975;DHT22;5028;50.974;4.968;2023-02-18T16:34:27;10.60;99.90
9975;DHT22;5028;50.974;4.968;2023-02-18T16:36:57;10.60;99.90
9975;DHT22;5028;50.974;4.968;2023-02-18T16:39:50;10.60;99.90
9975;DHT22;5028;50.974;4.968;2023-02-18T16:42:22;10.60;99.90
9975;DHT22;5028;50.974;4.968;2023-02-18T16:44:58;10.60;99.90
9975;DHT22;5028;50.974;4.968;2023-02-18T16:47:27;10.60;99.90
9975;DHT22;5028;50.974;4.968;2023-02-18T16:50:13;10.60;99.90
9975;DHT22;5028;50.974;4.968;2023-02-18T16:52:58;10.50;99.90
9975;DHT22;5028;50.974;4.968;2023-02-18T16:55:36;10.50;99.90
9975;DHT22;5028;50.974;4.968;2023-02-18T16:58:04;10.50;99.90
9975;DHT22;5028;50.974;4.968;2023-02-18T17:00:39;10.50;99.90
9975;DHT22;5028;50.974;4.968;2023-02-18T17:03:09;10.50;99.90
9975;DHT22;5028;50.974;4.968;2023-02-18T17:05:45;10.50;99.90
9975;DHT22;5028;50.974;4.968;2023-02-18T17:08:17;10.50;99.90
9975;DHT22;5028;50.974;4.968;2023-02-18T17:10:57;10.50;99.90
9975;DHT22;5028;50.974;4.968;2023-02-18T17:13:28;10.60;99.90
9975;DHT22;5028;50.974;4.968;2023-02-18T17:16:08;10.50;99.90
9975;DHT22;5028;50.974;4.968;2023-02-18T17:18:38;10.50;99.90
9975;DHT22;5028;50.974;4.968;2023-02-18T17:21:14;10.50;99.90
9975;DHT22;5028;50.974;4.968;2023-02-18T17:23:45;10.50;99.90
9975;DHT22;5028;50.974;4.968;2023-02-18T17:26:22;10.50;99.90
9975;DHT22;5028;50.974;4.968;2023-02-18T17:28:53;10.50;99.90